Time;durP1;ratioP1;P1;durP2;ratioP2;P2;SDS_P1;SDS_P2;PMS_P1;PMS_P2;Temp;Humidity;BMP_temperature;BMP_pressure;BME280_temperature;BME280_humidity;BME280_pressure;Samples;Min_cycle;Max_cycle;Signal;HPM_P1;HPM_P2
2023/01/19 00:02:23;;;;;;;0.25;0.25;;;2.50;99.90;;;;;;5099018;28;20040;-90
2023/01/19 00:04:49;;;;;;;0.00;0.00;;;2.40;99.90;;;;;;5099657;28;20089;-90
2023/01/19 00:07:15;;;;;;;0.10;0.10;;;2.40;99.90;;;;;;5099445;28;20040;-90
2023/01/19 00:09:40;;;;;;;0.00;0.00;;;2.40;99.90;;;;;;5100186;28;20582;-90
2023/01/19 00:12:06;;;;;;;0.10;0.10;;;2.40;99.90;;;;;;5101115;28;20040;-90
2023/01/19 00:14:32;;;;;;;0.00;0.00;;;2.70;99.90;;;;;;5100595;28;20127;-90
2023/01/19 00:16:57;;;;;;;0.10;0.10;;;2.60;99.90;;;;;;5101730;28;20046;-90
2023/01/19 00:19:23;;;;;;;0.10;0.10;;;2.60;99.90;;;;;;5099457;28;20047;-90
2023/01/19 00:21:49;;;;;;;0.00;0.00;;;2.60;99.90;;;;;;5100752;28;20048;-90
2023/01/19 00:24:15;;;;;;;0.00;0.00;;;2.60;99.90;;;;;;5099390;28;20070;-90
2023/01/19 00:26:41;;;;;;;0.00;0.00;;;2.60;99.90;;;;;;5101125;28;20036;-90
2023/01/19 00:29:08;;;;;;;0.00;0.00;;;2.60;99.90;;;;;;5100970;28;20044;-90
2023/01/19 00:31:34;;;;;;;0.00;0.00;;;2.70;99.90;;;;;;5101038;28;20055;-90
2023/01/19 00:34:00;;;;;;;0.20;0.17;;;2.70;99.90;;;;;;5101108;28;20044;-90
2023/01/19 00:36:26;;;;;;;0.32;0.32;;;2.70;99.90;;;;;;5100600;28;20115;-90
2023/01/19 00:38:51;;;;;;;0.00;0.00;;;2.70;99.90;;;;;;5099259;28;20050;-90
2023/01/19 00:41:17;;;;;;;0.00;0.00;;;2.80;99.90;;;;;;5101242;28;20554;-90
2023/01/19 00:43:43;;;;;;;0.00;0.00;;;2.80;99.90;;;;;;5099564;28;20043;-90
2023/01/19 00:46:09;;;;;;;0.00;0.00;;;2.80;99.90;;;;;;5100319;28;20047;-90
2023/01/19 00:48:34;;;;;;;0.10;0.10;;;2.80;99.90;;;;;;5098759;28;20040;-90
2023/01/19 00:51:00;;;;;;;0.00;0.00;;;2.80;99.90;;;;;;5098540;28;20394;-90
2023/01/19 00:53:31;;;;;;;0.00;0.00;;;2.80;99.90;;;;;;5099810;28;20051;-90
2023/01/19 00:55:57;;;;;;;0.08;0.08;;;2.80;99.90;;;;;;5099541;28;20043;-90
2023/01/19 00:58:22;;;;;;;0.10;0.10;;;2.80;99.90;;;;;;5099688;28;20047;-90
2023/01/19 01:00:48;;;;;;;0.00;0.00;;;2.80;99.90;;;;;;5100119;28;20040;-90
2023/01/19 01:03:13;;;;;;;17.80;1.10;;;3.10;99.90;;;;;;5099246;28;20036;-90
2023/01/19 01:05:41;;;;;;;0.00;0.00;;;3.00;99.90;;;;;;5099441;28;20061;-90
2023/01/19 01:08:06;;;;;;;0.00;0.00;;;2.90;99.90;;;;;;5099451;28;20052;-90
2023/01/19 01:10:32;;;;;;;0.00;0.00;;;3.00;99.90;;;;;;5099059;28;20047;-90
2023/01/19 01:12:58;;;;;;;0.00;0.00;;;2.90;99.90;;;;;;5099087;28;20068;-90
2023/01/19 01:15:25;;;;;;;0.00;0.00;;;2.80;99.90;;;;;;5098610;28;20452;-90
2023/01/19 01:17:51;;;;;;;0.00;0.00;;;2.80;99.90;;;;;;5096659;28;20048;-90
2023/01/19 01:20:19;;;;;;;0.00;0.00;;;2.70;99.90;;;;;;5097099;28;20044;-90
2023/01/19 01:22:48;;;;;;;0.00;0.00;;;2.60;99.90;;;;;;5098848;28;20484;-90
2023/01/19 01:25:16;;;;;;;0.00;0.00;;;2.60;99.90;;;;;;5098678;28;20048;-90
2023/01/19 01:27:42;;;;;;;0.00;0.00;;;2.50;99.90;;;;;;5098463;28;20036;-89
2023/01/19 01:30:09;;;;;;;0.00;0.00;;;2.40;99.90;;;;;;5098975;28;20035;-90
2023/01/19 01:32:35;;;;;;;0.00;0.00;;;2.40;99.90;;;;;;5098136;28;20404;-90
2023/01/19 01:35:00;;;;;;;0.00;0.00;;;2.30;99.90;;;;;;5098038;28;20040;-89
2023/01/19 01:37:26;;;;;;;0.00;0.00;;;2.30;99.90;;;;;;5096626;28;20048;-90
2023/01/19 01:39:52;;;;;;;0.00;0.00;;;2.20;99.90;;;;;;5096123;28;20123;-90
2023/01/19 01:42:23;;;;;;;0.03;0.03;;;2.20;99.90;;;;;;5096657;28;20480;-90
2023/01/19 01:44:55;;;;;;;0.10;0.10;;;2.10;99.90;;;;;;5097713;28;20047;-90
2023/01/19 01:47:40;;;;;;;0.00;0.00;;;2.10;99.90;;;;;;5096261;28;20119;-88
2023/01/19 01:50:23;;;;;;;0.10;0.10;;;2.10;99.90;;;;;;5098995;28;20052;-89
2023/01/19 01:53:01;;;;;;;0.10;0.10;;;2.10;99.90;;;;;;5101163;28;20036;-89
2023/01/19 01:55:29;;;;;;;0.03;0.03;;;2.10;99.90;;;;;;5100032;28;20054;-89
2023/01/19 01:57:59;;;;;;;0.10;0.10;;;2.40;99.90;;;;;;5099794;28;20407;-89
2023/01/19 02:00:25;;;;;;;0.00;0.00;;;2.10;99.90;;;;;;5099869;28;20054;-88
2023/01/19 02:02:52;;;;;;;0.05;0.05;;;2.10;99.90;;;;;;5099801;28;20096;-89
2023/01/19 02:05:30;;;;;;;0.00;0.00;;;2.70;99.90;;;;;;5083885;28;20054;-89
2023/01/19 02:13:45;;;;;;;0.00;0.00;;;2.10;99.90;;;;;;5103574;28;20056;-90
2023/01/19 02:16:13;;;;;;;0.00;0.00;;;2.20;99.90;;;;;;5101941;28;20094;-90
2023/01/19 02:18:39;;;;;;;0.00;0.00;;;2.10;99.90;;;;;;5102197;28;20047;-91
2023/01/19 02:21:37;;;;;;;0.00;0.00;;;2.20;99.90;;;;;;5101866;28;20080;-90
2023/01/19 02:24:03;;;;;;;0.00;0.00;;;2.20;99.90;;;;;;5083532;28;20055;-90
2023/01/19 02:26:34;;;;;;;0.30;0.30;;;2.20;99.90;;;;;;5102579;28;20368;-90
2023/01/19 02:29:02;;;;;;;0.00;0.00;;;2.20;99.90;;;;;;5101019;28;20048;-91
2023/01/19 02:31:30;;;;;;;0.10;0.10;;;2.20;99.90;;;;;;5100824;28;20092;-88
2023/01/19 02:33:58;;;;;;;0.00;0.00;;;2.30;99.90;;;;;;5102365;28;20380;-88
2023/01/19 02:36:33;;;;;;;0.05;0.05;;;2.20;99.90;;;;;;5100915;28;20044;-88
2023/01/19 02:39:01;;;;;;;0.00;0.00;;;2.30;99.90;;;;;;5100835;28;20051;-88
2023/01/19 02:41:33;;;;;;;0.00;0.00;;;2.30;99.90;;;;;;5101688;28;20071;-88
2023/01/19 02:43:59;;;;;;;0.00;0.00;;;2.30;99.90;;;;;;5101954;28;20043;-91
2023/01/19 02:46:25;;;;;;;0.00;0.00;;;2.30;99.90;;;;;;5102095;28;20039;-90
2023/01/19 02:48:51;;;;;;;0.00;0.00;;;2.30;99.90;;;;;;5101099;28;20056;-91
2023/01/19 02:51:21;;;;;;;0.05;0.05;;;2.30;99.90;;;;;;5102568;28;20039;-90
2023/01/19 02:54:05;;;;;;;0.00;0.00;;;2.30;99.90;;;;;;5102663;28;20105;-90
2023/01/19 02:56:49;;;;;;;0.10;0.10;;;2.30;99.90;;;;;;5101507;28;20052;-90
2023/01/19 02:59:23;;;;;;;0.00;0.00;;;2.30;99.90;;;;;;5102105;28;20107;-90
2023/01/19 03:02:04;;;;;;;0.10;0.10;;;2.30;99.90;;;;;;5099181;28;20080;-90
2023/01/19 03:05:02;;;;;;;0.28;0.28;;;2.40;99.90;;;;;;5101527;28;20048;-90
2023/01/19 03:07:37;;;;;;;0.05;0.05;;;2.40;99.90;;;;;;5099771;28;20189;-90
2023/01/19 03:10:16;;;;;;;0.10;0.10;;;2.40;99.90;;;;;;5101783;28;20059;-90
2023/01/19 03:13:01;;;;;;;0.47;0.40;;;2.40;99.90;;;;;;5100240;28;20044;-89
2023/01/19 03:15:42;;;;;;;0.13;0.13;;;2.40;99.90;;;;;;5101731;28;20051;-88
2023/01/19 03:18:11;;;;;;;0.20;0.20;;;2.40;99.90;;;;;;5101090;28;20395;-89
2023/01/19 03:20:39;;;;;;;0.20;0.20;;;2.40;99.90;;;;;;5100625;28;20044;-89
2023/01/19 03:23:09;;;;;;;1.85;0.43;;;2.50;99.90;;;;;;5100992;28;20040;-89
2023/01/19 03:25:38;;;;;;;0.22;0.22;;;2.40;99.90;;;;;;5098411;28;20403;-89
2023/01/19 03:28:04;;;;;;;0.20;0.20;;;2.50;99.90;;;;;;5098365;28;20048;-89
2023/01/19 03:30:34;;;;;;;0.43;0.43;;;2.50;99.90;;;;;;5098548;28;20036;-88
2023/01/19 03:33:06;;;;;;;0.52;0.52;;;2.50;99.90;;;;;;5099813;28;20047;-89
2023/01/19 03:35:35;;;;;;;0.45;0.30;;;2.50;99.90;;;;;;5100137;28;20093;-89
2023/01/19 03:38:07;;;;;;;0.05;0.05;;;2.50;99.90;;;;;;5100740;28;20068;-89
2023/01/19 03:40:35;;;;;;;0.22;0.22;;;2.40;99.90;;;;;;5100561;28;20036;-89
2023/01/19 03:43:02;;;;;;;0.00;0.00;;;2.40;99.90;;;;;;5100263;28;20082;-89
2023/01/19 03:45:31;;;;;;;0.28;0.28;;;2.40;99.90;;;;;;5100017;28;20048;-89
2023/01/19 03:47:58;;;;;;;0.10;0.10;;;2.40;99.90;;;;;;5100086;28;20044;-89
2023/01/19 03:50:29;;;;;;;0.00;0.00;;;2.50;99.90;;;;;;5099050;28;20522;-89
2023/01/19 03:53:05;;;;;;;0.20;0.20;;;2.50;99.90;;;;;;5098763;28;20130;-89
2023/01/19 03:55:33;;;;;;;0.00;0.00;;;2.40;99.90;;;;;;5099756;28;20048;-88
2023/01/19 03:57:59;;;;;;;0.38;0.30;;;2.40;99.90;;;;;;5100113;28;20044;-89
2023/01/19 04:00:24;;;;;;;0.10;0.10;;;2.40;99.90;;;;;;5099945;28;20032;-89
2023/01/19 04:02:50;;;;;;;0.32;0.32;;;2.20;99.90;;;;;;5099547;28;20509;-88
2023/01/19 04:05:16;;;;;;;0.00;0.00;;;2.10;99.90;;;;;;5099285;28;20403;-88
2023/01/19 04:07:41;;;;;;;0.32;0.32;;;2.00;99.90;;;;;;5099464;28;20475;-88
2023/01/19 04:10:11;;;;;;;1.92;1.75;;;2.10;99.90;;;;;;5099401;28;20043;-88
2023/01/19 04:12:38;;;;;;;0.00;0.00;;;2.10;99.90;;;;;;5100288;28;20124;-89
2023/01/19 04:15:05;;;;;;;1.02;1.00;;;2.20;99.90;;;;;;5115975;28;20123;-89
2023/01/19 04:17:31;;;;;;;0.20;0.20;;;2.20;99.90;;;;;;5100592;28;20040;-89
2023/01/19 04:19:56;;;;;;;3.25;1.35;;;2.30;99.90;;;;;;5099208;28;20058;-89
2023/01/19 04:22:22;;;;;;;0.13;0.13;;;2.30;99.90;;;;;;5101022;28;20032;-89
2023/01/19 04:24:48;;;;;;;0.30;0.30;;;2.30;99.90;;;;;;5099619;28;20100;-89
2023/01/19 04:27:15;;;;;;;0.10;0.10;;;2.20;99.90;;;;;;5100807;28;20093;-88
2023/01/19 04:29:41;;;;;;;0.00;0.00;;;2.20;99.90;;;;;;5100842;28;20101;-89
2023/01/19 04:32:07;;;;;;;0.00;0.00;;;2.20;99.90;;;;;;5100459;28;20040;-88
2023/01/19 04:34:32;;;;;;;0.00;0.00;;;2.10;99.90;;;;;;5099190;28;20073;-89
2023/01/19 04:36:58;;;;;;;0.82;0.82;;;2.10;99.90;;;;;;5100412;28;20426;-88
2023/01/19 04:39:24;;;;;;;0.45;0.45;;;2.10;99.90;;;;;;5099215;28;20044;-89
2023/01/19 04:41:50;;;;;;;0.32;0.32;;;2.10;99.90;;;;;;5100333;28;20044;-89
2023/01/19 04:44:16;;;;;;;0.20;0.20;;;2.10;99.90;;;;;;5098915;28;20397;-89
2023/01/19 04:46:42;;;;;;;0.05;0.05;;;2.10;99.90;;;;;;5100495;28;20122;-89
2023/01/19 04:49:09;;;;;;;0.10;0.10;;;2.10;99.90;;;;;;5100426;28;20180;-89
2023/01/19 04:51:35;;;;;;;0.15;0.15;;;2.10;99.90;;;;;;5100809;28;20056;-89
2023/01/19 04:54:01;;;;;;;0.00;0.00;;;2.10;99.90;;;;;;5100145;28;20072;-89
2023/01/19 04:56:27;;;;;;;0.38;0.38;;;2.10;99.90;;;;;;5098966;28;20044;-89
2023/01/19 04:58:53;;;;;;;0.22;0.22;;;2.10;99.90;;;;;;5098790;28;20065;-89
2023/01/19 05:01:19;;;;;;;0.10;0.10;;;2.10;99.90;;;;;;5099986;28;20036;-89
2023/01/19 05:03:45;;;;;;;0.63;0.63;;;2.00;99.90;;;;;;5100044;28;20089;-89
2023/01/19 05:06:10;;;;;;;0.13;0.13;;;2.10;99.90;;;;;;5098546;28;20044;-89
2023/01/19 05:08:36;;;;;;;0.30;0.30;;;2.10;99.90;;;;;;5098634;28;20048;-89
2023/01/19 05:11:02;;;;;;;0.10;0.10;;;2.10;99.90;;;;;;5098771;28;20119;-88
2023/01/19 05:13:28;;;;;;;0.00;0.00;;;2.80;99.90;;;;;;5098358;28;20071;-89
2023/01/19 05:15:53;;;;;;;0.20;0.20;;;2.00;99.90;;;;;;5098507;28;20046;-89
2023/01/19 05:18:19;;;;;;;0.00;0.00;;;2.00;99.90;;;;;;5097659;28;20062;-88
2023/01/19 05:20:47;;;;;;;0.03;0.03;;;2.00;99.90;;;;;;5098910;28;20039;-89
2023/01/19 05:23:13;;;;;;;0.38;0.38;;;1.90;99.90;;;;;;5098937;28;20042;-89
2023/01/19 05:25:39;;;;;;;0.10;0.10;;;2.00;99.90;;;;;;5104095;28;20071;-89
2023/01/19 05:28:04;;;;;;;0.00;0.00;;;2.00;99.90;;;;;;5102511;28;20044;-89
2023/01/19 05:30:30;;;;;;;0.10;0.10;;;2.00;99.90;;;;;;5103005;28;20047;-89
2023/01/19 05:32:55;;;;;;;0.00;0.00;;;2.00;99.90;;;;;;5102655;28;20121;-89
2023/01/19 05:35:21;;;;;;;0.00;0.00;;;2.60;99.90;;;;;;5103494;28;20085;-89
2023/01/19 05:37:47;;;;;;;0.00;0.00;;;1.80;99.90;;;;;;5104327;28;20040;-89
2023/01/19 05:40:13;;;;;;;0.00;0.00;;;1.80;99.90;;;;;;5102779;28;20048;-89
2023/01/19 05:42:39;;;;;;;0.00;0.00;;;1.70;99.90;;;;;;5103280;28;20079;-89
2023/01/19 05:45:05;;;;;;;0.45;0.45;;;1.70;99.90;;;;;;5102504;28;20044;-89
2023/01/19 05:47:31;;;;;;;0.00;0.00;;;1.70;99.90;;;;;;5102386;28;20052;-89
2023/01/19 05:49:56;;;;;;;0.00;0.00;;;1.70;99.90;;;;;;5103679;28;20078;-89
2023/01/19 05:52:23;;;;;;;0.20;0.20;;;1.70;99.90;;;;;;5103891;28;20071;-89
2023/01/19 05:54:50;;;;;;;0.00;0.00;;;1.80;99.90;;;;;;5101835;28;20056;-89
2023/01/19 05:57:16;;;;;;;0.00;0.00;;;1.80;99.90;;;;;;5101346;28;20044;-89
2023/01/19 05:59:42;;;;;;;0.00;0.00;;;1.80;99.90;;;;;;5101211;28;20040;-89
2023/01/19 06:02:08;;;;;;;0.00;0.00;;;1.80;99.90;;;;;;5101194;28;20569;-89
2023/01/19 06:04:34;;;;;;;0.00;0.00;;;1.90;99.90;;;;;;5100565;28;20048;-89
2023/01/19 06:07:00;;;;;;;0.10;0.10;;;1.90;99.90;;;;;;5102494;28;20099;-89
2023/01/19 06:09:26;;;;;;;0.45;0.45;;;1.90;99.90;;;;;;5102334;28;20065;-89
2023/01/19 06:11:54;;;;;;;0.00;0.00;;;1.90;99.90;;;;;;5103091;28;20099;-89
2023/01/19 06:14:20;;;;;;;0.00;0.00;;;1.90;99.90;;;;;;5102515;28;20044;-89
2023/01/19 06:16:45;;;;;;;0.00;0.00;;;2.00;99.90;;;;;;5102380;28;20043;-89
2023/01/19 06:19:11;;;;;;;0.00;0.00;;;2.10;99.90;;;;;;5103359;28;20093;-89
2023/01/19 06:21:37;;;;;;;0.35;0.35;;;2.10;99.90;;;;;;5101701;28;20079;-89
2023/01/19 06:24:03;;;;;;;0.00;0.00;;;2.10;99.90;;;;;;5103125;28;20044;-89
2023/01/19 06:26:28;;;;;;;0.20;0.20;;;2.10;99.90;;;;;;5101614;28;20043;-89
2023/01/19 06:28:54;;;;;;;0.00;0.00;;;2.10;99.90;;;;;;5101721;28;20044;-89
2023/01/19 06:31:20;;;;;;;0.00;0.00;;;2.10;99.90;;;;;;5101634;28;20047;-89
2023/01/19 06:33:46;;;;;;;0.10;0.10;;;2.00;99.90;;;;;;5101429;28;20040;-89
2023/01/19 06:36:11;;;;;;;0.00;0.00;;;1.90;99.90;;;;;;5101409;28;20036;-89
2023/01/19 06:38:37;;;;;;;0.00;0.00;;;1.90;99.90;;;;;;5101038;28;20048;-89
2023/01/19 06:41:03;;;;;;;0.10;0.10;;;1.90;99.90;;;;;;5101315;28;20059;-89
2023/01/19 06:43:30;;;;;;;0.00;0.00;;;2.00;99.90;;;;;;5102981;28;20062;-89
2023/01/19 06:45:56;;;;;;;0.00;0.00;;;2.10;99.90;;;;;;5102855;28;20032;-89
2023/01/19 06:48:22;;;;;;;0.00;0.00;;;2.10;99.90;;;;;;5101256;28;20105;-89
2023/01/19 06:50:48;;;;;;;0.00;0.00;;;2.20;99.90;;;;;;5101216;28;20060;-89
2023/01/19 06:53:15;;;;;;;0.10;0.10;;;2.30;99.90;;;;;;5118000;28;20036;-89
2023/01/19 06:55:42;;;;;;;0.00;0.00;;;2.30;99.90;;;;;;5101418;28;20044;-89
2023/01/19 06:58:09;;;;;;;0.00;0.00;;;2.20;99.90;;;;;;5101948;28;20123;-89
2023/01/19 07:00:34;;;;;;;0.43;0.43;;;2.00;99.90;;;;;;5100973;28;20036;-89
2023/01/19 07:03:00;;;;;;;0.00;0.00;;;1.90;99.90;;;;;;5100517;28;20085;-89
2023/01/19 07:05:26;;;;;;;0.00;0.00;;;1.80;99.90;;;;;;5101165;28;20503;-89
2023/01/19 07:07:53;;;;;;;0.00;0.00;;;1.70;99.90;;;;;;5099098;28;20044;-88
2023/01/19 07:10:18;;;;;;;0.00;0.00;;;1.70;99.90;;;;;;5099354;28;20059;-89
2023/01/19 07:12:46;;;;;;;0.00;0.00;;;1.60;99.90;;;;;;5101935;28;20399;-89
2023/01/19 07:15:12;;;;;;;0.00;0.00;;;1.60;99.90;;;;;;5101395;28;20118;-89
2023/01/19 07:17:38;;;;;;;0.28;0.28;;;1.70;99.90;;;;;;5101260;28;20040;-89
2023/01/19 07:20:04;;;;;;;0.10;0.10;;;1.80;99.90;;;;;;5100273;28;20043;-89
2023/01/19 07:22:29;;;;;;;0.00;0.00;;;1.70;99.90;;;;;;5099171;28;20442;-89
2023/01/19 07:24:55;;;;;;;0.00;0.00;;;1.90;99.90;;;;;;5101238;28;20044;-89
2023/01/19 07:27:20;;;;;;;0.00;0.00;;;1.90;99.90;;;;;;5101920;28;20480;-90
2023/01/19 07:29:46;;;;;;;0.00;0.00;;;2.00;99.90;;;;;;5100970;28;20101;-89
2023/01/19 07:32:11;;;;;;;0.10;0.10;;;2.10;99.90;;;;;;5100665;28;20043;-89
2023/01/19 07:34:37;;;;;;;0.00;0.00;;;2.20;99.90;;;;;;5095454;28;20437;-89
2023/01/19 07:37:03;;;;;;;0.00;0.00;;;2.20;99.90;;;;;;5095254;28;20032;-89
2023/01/19 07:39:30;;;;;;;0.28;0.28;;;2.20;99.90;;;;;;5095075;28;20044;-89
2023/01/19 07:41:57;;;;;;;0.05;0.05;;;2.20;99.90;;;;;;5095323;28;20398;-89
2023/01/19 07:44:22;;;;;;;0.10;0.10;;;2.20;99.90;;;;;;5093106;28;20036;-89
2023/01/19 07:46:50;;;;;;;0.00;0.00;;;3.30;99.90;;;;;;5092010;28;20434;-89
2023/01/19 07:49:15;;;;;;;0.00;0.00;;;2.10;99.90;;;;;;5112938;28;20020;-89
2023/01/19 07:51:41;;;;;;;0.00;0.00;;;2.10;99.90;;;;;;5116346;28;20054;-90
2023/01/19 07:54:07;;;;;;;0.00;0.00;;;2.10;99.90;;;;;;5101640;28;20542;-89
2023/01/19 07:56:33;;;;;;;0.00;0.00;;;2.10;99.90;;;;;;5091886;28;20236;-89
2023/01/19 07:58:58;;;;;;;0.00;0.00;;;2.20;99.90;;;;;;5091622;28;20036;-90
2023/01/19 08:01:24;;;;;;;0.00;0.00;;;2.30;99.90;;;;;;5090334;28;20044;-90
2023/01/19 08:03:50;;;;;;;1.85;1.27;;;2.30;99.90;;;;;;5091476;28;20067;-89
2023/01/19 08:06:21;;;;;;;5.50;1.60;;;2.30;99.90;;;;;;5090392;28;20312;-90
2023/01/19 08:08:47;;;;;;;0.00;0.00;;;2.50;99.90;;;;;;5091363;28;20048;-90
2023/01/19 08:11:14;;;;;;;0.00;0.00;;;2.60;99.90;;;;;;5091699;28;20078;-90
2023/01/19 08:13:40;;;;;;;0.57;0.57;;;2.70;99.90;;;;;;5090011;28;20090;-89
2023/01/19 08:16:05;;;;;;;0.98;0.95;;;2.80;99.90;;;;;;5091421;28;20495;-89
2023/01/19 08:18:31;;;;;;;0.00;0.00;;;2.90;99.90;;;;;;5090070;28;20047;-89
2023/01/19 08:21:00;;;;;;;0.00;0.00;;;2.90;99.90;;;;;;5090127;28;20324;-89
2023/01/19 08:23:26;;;;;;;0.20;0.20;;;2.90;99.90;;;;;;5091648;28;20132;-89
2023/01/19 08:25:53;;;;;;;0.00;0.00;;;2.90;99.90;;;;;;5090272;28;20079;-89
2023/01/19 08:28:19;;;;;;;1.00;0.43;;;2.90;99.90;;;;;;5091796;28;20040;-89
2023/01/19 08:30:52;;;;;;;0.00;0.00;;;2.90;99.90;;;;;;5090711;28;20301;-90
2023/01/19 08:33:18;;;;;;;0.00;0.00;;;2.90;99.90;;;;;;5092573;28;20048;-89
2023/01/19 08:35:48;;;;;;;0.00;0.00;;;2.90;99.90;;;;;;5091667;28;20036;-89
2023/01/19 08:38:14;;;;;;;0.03;0.03;;;2.90;99.90;;;;;;5091452;28;20039;-90
2023/01/19 08:40:40;;;;;;;4.78;2.10;;;2.90;99.90;;;;;;5091016;28;20576;-89
2023/01/19 08:43:15;;;;;;;0.00;0.00;;;2.90;99.90;;;;;;5091053;28;20787;-89
2023/01/19 08:45:46;;;;;;;0.00;0.00;;;3.00;99.90;;;;;;5091819;28;20036;-90
2023/01/19 08:48:13;;;;;;;0.00;0.00;;;3.10;99.90;;;;;;5090992;28;20051;-89
2023/01/19 08:50:39;;;;;;;0.08;0.08;;;3.10;99.90;;;;;;5091218;28;20098;-89
2023/01/19 08:53:05;;;;;;;0.00;0.00;;;3.20;99.90;;;;;;5089815;28;20491;-89
2023/01/19 08:55:33;;;;;;;0.00;0.00;;;3.20;99.90;;;;;;5090774;28;20113;-90
2023/01/19 08:58:00;;;;;;;1.90;0.68;;;3.10;99.90;;;;;;5088971;28;20084;-89
2023/01/19 09:00:26;;;;;;;1.95;1.23;;;3.10;99.90;;;;;;5089219;28;20051;-89
2023/01/19 09:02:52;;;;;;;0.75;0.75;;;3.00;99.90;;;;;;5089987;28;20479;-90
2023/01/19 09:05:18;;;;;;;2.08;1.35;;;3.00;99.90;;;;;;5089151;28;20483;-89
2023/01/19 09:07:46;;;;;;;0.03;0.03;;;3.00;99.90;;;;;;5089916;28;20036;-89
2023/01/19 09:10:13;;;;;;;0.00;0.00;;;2.90;99.90;;;;;;5092039;28;20040;-89
2023/01/19 09:12:39;;;;;;;0.00;0.00;;;2.90;99.90;;;;;;5089114;28;20077;-90
2023/01/19 09:15:05;;;;;;;0.00;0.00;;;2.90;99.90;;;;;;5090500;28;20066;-90
2023/01/19 09:17:31;;;;;;;0.00;0.00;;;2.90;99.90;;;;;;5088810;28;20040;-90
2023/01/19 09:19:57;;;;;;;0.30;0.30;;;2.90;99.90;;;;;;5090253;28;20040;-89
2023/01/19 09:22:23;;;;;;;0.47;0.32;;;2.80;99.90;;;;;;5090334;28;20058;-90
2023/01/19 09:24:48;;;;;;;13.65;0.80;;;2.70;99.90;;;;;;5089128;28;20082;-90
2023/01/19 09:27:14;;;;;;;0.00;0.00;;;2.80;99.90;;;;;;5088841;28;20704;-89
2023/01/19 09:29:40;;;;;;;0.03;0.03;;;2.80;99.90;;;;;;5086864;28;20044;-89
2023/01/19 09:32:05;;;;;;;0.00;0.00;;;2.80;99.90;;;;;;5088698;28;20079;-90
2023/01/19 09:34:31;;;;;;;0.00;0.00;;;2.70;99.90;;;;;;5090110;28;20449;-89
2023/01/19 09:36:57;;;;;;;0.00;0.00;;;2.80;99.90;;;;;;5088934;28;20048;-89
2023/01/19 09:39:22;;;;;;;3.92;1.65;;;2.70;99.90;;;;;;5090461;28;20036;-90
2023/01/19 09:41:57;;;;;;;0.40;0.40;;;2.70;99.90;;;;;;5089086;28;20062;-89
2023/01/19 09:44:33;;;;;;;0.00;0.00;;;2.60;99.90;;;;;;5091288;28;20082;-90
2023/01/19 09:47:02;;;;;;;0.25;0.25;;;2.50;99.90;;;;;;5091562;28;20070;-90
2023/01/19 09:49:38;;;;;;;0.00;0.00;;;2.50;99.90;;;;;;5091291;28;20056;-89
2023/01/19 09:52:04;;;;;;;0.28;0.22;;;2.50;99.90;;;;;;5091637;28;20518;-90
2023/01/19 09:54:40;;;;;;;1.17;0.90;;;2.50;99.90;;;;;;5090749;28;20114;-90
2023/01/19 09:57:13;;;;;;;0.00;0.00;;;2.50;99.90;;;;;;5091682;28;20077;-90
2023/01/19 09:59:42;;;;;;;0.10;0.10;;;2.50;99.90;;;;;;5089855;28;20173;-90
2023/01/19 10:02:51;;;;;;;0.00;0.00;;;2.50;99.90;;;;;;5090254;28;20083;-90
2023/01/19 10:05:37;;;;;;;0.00;0.00;;;2.50;99.90;;;;;;5091790;28;20560;-90
2023/01/19 10:08:18;;;;;;;0.00;0.00;;;2.70;99.90;;;;;;5090206;28;20052;-90
2023/01/19 10:10:55;;;;;;;0.70;0.70;;;2.70;99.90;;;;;;5093831;28;20411;-90
2023/01/19 10:13:40;;;;;;;0.03;0.03;;;2.80;99.90;;;;;;5095400;28;20039;-90
2023/01/19 10:16:32;;;;;;;0.55;0.22;;;2.90;99.90;;;;;;5095536;28;20075;-90
2023/01/19 10:19:22;;;;;;;0.00;0.00;;;3.00;99.90;;;;;;5094028;28;20096;-90
2023/01/19 10:21:50;;;;;;;0.00;0.00;;;3.10;99.90;;;;;;5094697;28;20527;-90
2023/01/19 10:24:24;;;;;;;0.00;0.00;;;3.20;99.90;;;;;;5093852;28;20476;-90
2023/01/19 10:26:53;;;;;;;1.20;0.90;;;3.30;99.90;;;;;;5097541;28;20442;-89
2023/01/19 10:29:35;;;;;;;0.00;0.00;;;3.30;99.90;;;;;;5093219;28;20483;-89
2023/01/19 10:32:25;;;;;;;0.10;0.10;;;3.40;99.90;;;;;;5092565;28;20077;-89
2023/01/19 10:34:51;;;;;;;0.00;0.00;;;3.40;99.90;;;;;;5092327;28;20559;-89
2023/01/19 10:37:17;;;;;;;0.00;0.00;;;3.40;99.90;;;;;;5093379;28;20403;-89
2023/01/19 10:39:56;;;;;;;0.00;0.00;;;3.30;99.90;;;;;;5091737;28;20088;-89
2023/01/19 10:42:21;;;;;;;0.00;0.00;;;3.50;99.90;;;;;;5091881;28;20052;-89
2023/01/19 10:44:49;;;;;;;0.00;0.00;;;3.70;99.90;;;;;;5091496;28;20603;-89
2023/01/19 10:47:17;;;;;;;0.20;0.20;;;3.80;99.90;;;;;;5093083;28;20079;-90
2023/01/19 10:49:43;;;;;;;0.45;0.45;;;3.90;99.90;;;;;;5093189;28;20056;-90
2023/01/19 10:52:31;;;;;;;0.00;0.00;;;3.80;99.90;;;;;;5092876;28;20051;-90
2023/01/19 10:55:00;;;;;;;0.00;0.00;;;3.80;99.90;;;;;;5091616;28;20470;-90
2023/01/19 10:57:26;;;;;;;0.00;0.00;;;3.80;99.90;;;;;;5091664;28;20047;-90
2023/01/19 10:59:51;;;;;;;0.00;0.00;;;4.00;99.90;;;;;;5092795;28;20070;-89
2023/01/19 11:02:28;;;;;;;0.35;0.32;;;4.10;99.90;;;;;;5092999;28;20391;-90
2023/01/19 11:04:59;;;;;;;1.20;1.10;;;4.20;99.90;;;;;;5091948;28;20092;-90
2023/01/19 11:07:25;;;;;;;0.00;0.00;;;4.30;99.90;;;;;;5091630;28;20123;-90
2023/01/19 11:10:10;;;;;;;12.88;2.15;;;4.40;99.90;;;;;;5092333;28;20131;-90
2023/01/19 11:12:42;;;;;;;0.28;0.28;;;4.40;99.90;;;;;;5091562;28;20385;-90
2023/01/19 11:15:34;;;;;;;0.73;0.35;;;4.30;99.90;;;;;;5091384;28;20048;-90
2023/01/19 11:18:04;;;;;;;0.00;0.00;;;4.20;99.90;;;;;;5089433;28;20083;-90
2023/01/19 11:20:49;;;;;;;0.30;0.30;;;4.30;99.90;;;;;;5091009;28;20084;-90
2023/01/19 11:23:20;;;;;;;0.00;0.00;;;4.40;99.90;;;;;;5090575;28;20055;-90
2023/01/19 11:25:50;;;;;;;0.00;0.00;;;4.40;99.90;;;;;;5091214;28;20055;-90
2023/01/19 11:28:19;;;;;;;1.48;1.38;;;4.50;99.90;;;;;;5092300;28;20044;-89
2023/01/19 11:31:00;;;;;;;0.70;0.52;;;4.50;99.90;;;;;;5092120;28;20463;-89
2023/01/19 11:33:33;;;;;;;0.20;0.20;;;4.60;99.90;;;;;;5091683;28;20040;-90
2023/01/19 11:36:15;;;;;;;0.10;0.10;;;4.60;99.90;;;;;;5092734;28;20068;-90
2023/01/19 11:38:49;;;;;;;4.35;0.75;;;4.70;99.90;;;;;;5093392;28;20556;-89
2023/01/19 11:41:36;;;;;;;0.30;0.30;;;4.80;1.00;;;;;;5092027;28;20127;-90
2023/01/19 11:44:22;;;;;;;0.00;0.00;;;4.80;99.90;;;;;;5092300;28;20395;-89
2023/01/19 11:46:58;;;;;;;0.00;0.00;;;4.80;60.30;;;;;;5092834;28;20088;-90
2023/01/19 11:49:38;;;;;;;0.00;0.00;;;4.90;99.90;;;;;;5093439;28;20040;-90
2023/01/19 11:52:27;;;;;;;0.00;0.00;;;5.00;1.00;;;;;;5093403;28;20126;-89
2023/01/19 11:55:18;;;;;;;0.00;0.00;;;5.00;99.90;;;;;;5095039;28;20040;-89
2023/01/19 11:57:49;;;;;;;4.55;0.98;;;5.10;99.90;;;;;;5094626;28;20051;-90
2023/01/19 12:00:46;;;;;;;0.00;0.00;;;5.10;99.90;;;;;;5092684;28;20036;-90
2023/01/19 12:03:25;;;;;;;0.98;0.85;;;5.10;34.30;;;;;;5091039;28;20065;-90
2023/01/19 12:05:56;;;;;;;0.10;0.10;;;5.20;99.90;;;;;;5091288;28;20077;-90
2023/01/19 12:08:35;;;;;;;0.25;0.25;;;5.20;1.00;;;;;;5092734;28;20284;-89
2023/01/19 12:11:02;;;;;;;0.00;0.00;;;5.20;99.90;;;;;;5092811;28;20047;-90
2023/01/19 12:13:30;;;;;;;0.00;0.00;;;5.30;1.00;;;;;;5092916;28;20119;-90
2023/01/19 12:16:07;;;;;;;0.00;0.00;;;5.30;1.00;;;;;;5093098;28;20089;-90
2023/01/19 12:18:46;;;;;;;0.00;0.00;;;5.50;99.90;;;;;;5092891;28;20043;-90
2023/01/19 12:21:11;;;;;;;0.25;0.25;;;5.60;1.00;;;;;;5094301;28;20522;-90
2023/01/19 12:24:06;;;;;;;0.00;0.00;;;5.70;1.00;;;;;;5092349;28;20040;-90
2023/01/19 12:26:37;;;;;;;0.00;0.00;;;5.80;99.90;;;;;;5092709;28;20052;-90
2023/01/19 12:29:11;;;;;;;0.00;0.00;;;5.80;99.90;;;;;;5092898;28;20082;-90
2023/01/19 12:31:39;;;;;;;0.00;0.00;;;6.00;99.90;;;;;;5094245;28;20578;-90
2023/01/19 12:34:30;;;;;;;0.00;0.00;;;6.00;4.00;;;;;;5094202;28;20116;-90
2023/01/19 12:37:04;;;;;;;0.00;0.00;;;6.20;20.80;;;;;;5092653;28;20085;-90
2023/01/19 12:39:31;;;;;;;0.45;0.45;;;6.20;1.00;;;;;;5092642;28;20051;-90
2023/01/19 12:42:15;;;;;;;0.00;0.00;;;6.20;1.00;;;;;;5094018;28;20062;-89
2023/01/19 12:44:43;;;;;;;0.00;0.00;;;6.20;1.00;;;;;;5094001;28;20036;-89
2023/01/19 12:47:14;;;;;;;0.00;0.00;;;6.30;1.00;;;;;;5095404;28;20040;-89
2023/01/19 12:49:41;;;;;;;0.00;0.00;;;6.40;1.00;;;;;;5092987;28;20055;-90
2023/01/19 12:52:35;;;;;;;0.40;0.40;;;6.60;99.90;;;;;;5093589;28;20048;-89
2023/01/19 12:55:12;;;;;;;1.23;0.28;;;7.00;99.90;;;;;;5091986;28;20043;-89
2023/01/19 12:57:49;;;;;;;0.00;0.00;;;7.30;79.20;;;;;;5092057;28;20105;-89
2023/01/19 13:00:20;;;;;;;0.00;0.00;;;7.20;99.90;;;;;;5092404;28;20141;-89
2023/01/19 13:02:51;;;;;;;0.00;0.00;;;6.70;99.90;;;;;;5093446;28;20055;-89
2023/01/19 13:05:37;;;;;;;1.45;0.55;;;6.30;99.90;;;;;;5092376;28;20410;-90
2023/01/19 13:08:06;;;;;;;0.00;0.00;;;5.90;99.90;;;;;;5092077;28;20058;-89
2023/01/19 13:11:09;;;;;;;0.05;0.05;;;5.50;99.90;;;;;;5093696;28;20044;-89
2023/01/19 13:13:35;;;;;;;0.00;0.00;;;5.30;99.90;;;;;;5093939;28;20048;-89
2023/01/19 13:16:23;;;;;;;0.00;0.00;;;5.20;99.90;;;;;;5092038;28;20565;-89
2023/01/19 13:19:14;;;;;;;0.00;0.00;;;5.10;99.90;;;;;;5062976;28;20052;-89